createdAt,value
2023-01-24T00:15:50.095Z,19.2
2023-01-24T01:26:00.625Z,19.2
2023-01-24T01:36:02.505Z,19.2
2023-01-24T01:56:05.790Z,19.2
2023-01-24T02:16:09.446Z,19.2
2023-01-24T02:36:12.365Z,19.1
2023-01-24T03:46:21.936Z,19
2023-01-24T03:56:23.204Z,19
2023-01-24T04:36:28.628Z,19
2023-01-24T04:46:29.718Z,19
2023-01-24T04:56:30.798Z,19
2023-01-24T05:16:33.582Z,19
2023-01-24T05:36:36.225Z,19
2023-01-24T05:46:37.463Z,19
2023-01-24T06:16:42.323Z,19
2023-01-24T06:26:44.020Z,19
2023-01-24T06:36:45.519Z,19
2023-01-24T08:37:06.462Z,19
2023-01-24T09:17:12.141Z,1.9
2023-01-24T09:37:15.549Z,1.8
2023-01-24T09:47:16.843Z,1.9
2023-01-24T09:57:17.969Z,1.9
2023-01-24T10:07:19.821Z,1.8
2023-01-24T10:17:20.982Z,1.9
2023-01-24T10:27:22.438Z,2
2023-01-24T10:37:23.829Z,2.1
2023-01-24T10:47:25.562Z,2
2023-01-24T10:57:26.461Z,2
2023-01-24T11:07:28.315Z,2.1
2023-01-24T11:17:29.845Z,2.1
2023-01-24T11:27:30.954Z,2.2
2023-01-24T11:37:32.755Z,2.1
2023-01-24T11:47:34.296Z,2
2023-01-24T11:57:42.470Z,2
2023-01-24T12:07:43.955Z,2.1
2023-01-24T12:17:45.388Z,2.1
2023-01-24T12:27:47.160Z,2.2
2023-01-24T12:37:49.870Z,2.2
2023-01-24T12:47:50.313Z,2.4
2023-01-24T12:57:52.272Z,2.3
2023-01-24T13:07:53.551Z,2.2
2023-01-24T13:17:55.216Z,2
2023-01-24T13:27:57.077Z,2.1
2023-01-24T13:37:58.579Z,2
2023-01-24T13:47:59.777Z,2
2023-01-24T13:58:00.956Z,2
2023-01-24T14:08:02.687Z,2
2023-01-24T14:18:04.161Z,1.9
2023-01-24T14:28:06.122Z,1.8
2023-01-24T14:38:07.256Z,1.7
2023-01-24T14:48:08.439Z,1.7
2023-01-24T14:58:09.636Z,1.7
2023-01-24T15:08:11.352Z,1.5
2023-01-24T15:18:12.582Z,1.4
2023-01-24T15:28:14.515Z,1.3
2023-01-24T15:38:15.924Z,1.3
2023-01-24T15:48:17.844Z,1.3
2023-01-24T15:58:19.733Z,1.2
2023-01-24T16:08:20.911Z,1.2
2023-01-24T16:18:22.079Z,1.2
2023-01-24T16:28:23.731Z,1.2
2023-01-24T16:38:25.007Z,1.1
2023-01-24T16:48:27.074Z,1.1
2023-01-24T16:58:28.950Z,1
2023-01-24T17:08:30.150Z,1
2023-01-24T17:18:31.615Z,1
2023-01-24T17:28:33.596Z,1
2023-01-24T17:38:35.554Z,1
2023-01-24T17:48:36.827Z,1
2023-01-24T17:58:38.019Z,0.9
2023-01-24T18:08:39.340Z,0.8
2023-01-24T18:18:41.112Z,0.8
2023-01-24T18:28:42.443Z,0.8
2023-01-24T18:38:43.873Z,0.7
2023-01-24T18:48:45.124Z,0.7
2023-01-24T18:58:46.382Z,0.7
2023-01-24T19:09:01.523Z,0.7
2023-01-24T19:18:49.289Z,0.6
2023-01-24T19:28:50.751Z,0.5
2023-01-24T19:38:52.016Z,0.5
2023-01-24T19:48:53.971Z,0.4
2023-01-24T19:58:55.293Z,0.5
2023-01-24T20:08:56.614Z,0.4
2023-01-24T20:18:58.649Z,0.4
2023-01-24T20:28:59.826Z,0.4
2023-01-24T20:49:03.265Z,0.2
2023-01-24T20:59:04.807Z,0.2
2023-01-24T21:09:05.953Z,0.2
2023-01-24T21:29:08.714Z,0.2
2023-01-24T21:39:10.652Z,0.1
2023-01-24T21:49:12.220Z,0.1
2023-01-24T21:59:14.176Z,0.1
2023-01-24T22:09:15.353Z,0
2023-01-24T22:19:17.146Z,0
2023-01-24T22:29:19.074Z,0
2023-01-24T22:39:20.244Z,0
2023-01-24T22:49:21.920Z,0
2023-01-24T22:59:23.700Z,0
2023-01-24T23:09:25.429Z,-0.1
2023-01-24T23:19:27.143Z,-0.1
2023-01-24T23:39:30.095Z,-0.2
2023-01-24T23:49:31.500Z,-0.2
2023-01-24T23:59:32.936Z,-0.3
